Sekiu, WA (98381)

2:39 AM PDT on September 03, 2015 (GMT -0700)
Curley's Resort & Dive Center | | Change Station
CLOSE
Current Station
Personal Weather Station
Location: Sekiu, WA
Elevation: 12 ft
Nearby Weather Stations

Elev 12 ft 48.26 °N, 124.30 °W | Updated 19 days ago

Mostly Cloudy
Mostly Cloudy
51 °F
Feels Like 51 °F
N
6
Wind Variable Wind from SW
Gusts mph

Today
High -- | Low -- °F
--% Chance of Precip.
Yesterday
High -- | Low -- °F
Precip. -- in
6:37 AM 7:54 PM
Waning Gibbous, 72% visible
Pressure 29.96 in
Visibility -9999.0 miles
Clouds Few 3200 ft
Few 3900 ft
Dew Point 48 °F
Humidity 91%
Rainfall in
Snow Depth Not available.
UV 0 out of 12
Pollen .50 out of 12
Air Quality Not available.
Flu Activity Not available.
METAR KUIL 030853Z AUTO 00000KT FEW032 FEW039 10/09 A2996 RMK AO2 SLP146 60009 T01000094 53001 $
Pressure 29.96 in
Visibility -9999.0 miles
Clouds Few 3200 ft
Few 3900 ft
Dew Point 48 °F
Humidity 91%
Rainfall in
Snow Depth Not available.
UV 0 out of 12
Pollen .50 out of 12
Air Quality Not available.
Flu Activity Not available.
METAR KUIL 030853Z AUTO 00000KT FEW032 FEW039 10/09 A2996 RMK AO2 SLP146 60009 T01000094 53001 $

10-Day Weather Forecast

×

Almanac

Astronomy

Sep. 03, 2015 Rise Set
Actual Time
Civil Twilight
Nautical Twilight
Astronomical Twilight
Moon
Length of Visible Light
Length of Day
Tomorrow will be .
, % of the Moon is Illuminated

Today's Extremes

State Highs State Lows

Community

WunderPhotos

Upload Photos

1,851,923 photos uploaded!

WunderBlogs® & News

Nearby

Air Quality

  Air Quality AQ Index Pollutant
Not available.

Snow Depth

Station Depth Elevation

Earthquake Activity

City Distance Mag. Time & Date
Minimum magnitude displayed is 2.5.

Coastal Water Temperatures

Place Temperature

Stations

Nearby Weather Stations

Station Location Temp. Windchill Dew Point Humidity Wind Precip. Elev Updated Type